createdAt,value
2018-10-18T00:00:19.300Z,100943.34
2018-10-18T00:02:46.698Z,100944.55
2018-10-18T00:05:14.180Z,100935.41
2018-10-18T00:07:41.581Z,100938.69
2018-10-18T00:10:09.212Z,100938.92
2018-10-18T00:12:36.980Z,100937.71
2018-10-18T00:15:05.119Z,100941.47
2018-10-18T00:17:38.273Z,100936.17
2018-10-18T00:20:06.019Z,100933.91
2018-10-18T00:22:33.445Z,100930.31
2018-10-18T00:25:00.965Z,100931.89
2018-10-18T00:27:28.418Z,100938.15
2018-10-18T00:29:55.852Z,100935.86
2018-10-18T00:32:23.326Z,100937.41
2018-10-18T00:34:50.712Z,100932.92
2018-10-18T00:37:18.164Z,100937.45
2018-10-18T00:39:45.619Z,100935.77
2018-10-18T00:42:13.114Z,100927.77
2018-10-18T00:44:40.511Z,100928.47
2018-10-18T00:47:07.924Z,100928.32
2018-10-18T00:49:35.334Z,100932.28
2018-10-18T00:52:02.803Z,100927.34
2018-10-18T00:54:30.236Z,100920.03
2018-10-18T00:56:57.684Z,100922.09
2018-10-18T00:59:25.094Z,100917.77
2018-10-18T01:01:52.586Z,100921.86
2018-10-18T01:04:19.980Z,100922.47
2018-10-18T01:06:47.413Z,100924.03
2018-10-18T01:09:14.999Z,100923.45
2018-10-18T01:11:42.352Z,100917.72
2018-10-18T01:14:10.661Z,100921.69
2018-10-18T01:16:38.044Z,100913.77
2018-10-18T01:19:05.522Z,100913.19
2018-10-18T01:21:33.044Z,100912.09
2018-10-18T01:24:00.610Z,100914.50
2018-10-18T01:26:28.028Z,100915.09
2018-10-18T01:28:55.390Z,100913.68
2018-10-18T01:31:22.828Z,100912.23
2018-10-18T01:33:50.192Z,100917.08
2018-10-18T01:36:17.773Z,100914.55
2018-10-18T01:38:45.134Z,100917.30
2018-10-18T01:41:12.703Z,100915.75
2018-10-18T01:43:40.164Z,100915.79
2018-10-18T01:46:07.656Z,100912.69
2018-10-18T01:48:35.046Z,100912.70
2018-10-18T01:51:02.584Z,100912.95
2018-10-18T01:53:30.073Z,100907.08
2018-10-18T01:55:57.609Z,100906.70
2018-10-18T01:58:25.158Z,100911.99
2018-10-18T02:00:52.667Z,100905.41
2018-10-18T02:03:20.116Z,100905.52
2018-10-18T02:05:47.516Z,100910.30
2018-10-18T02:08:15.218Z,100912.09
2018-10-18T02:10:42.674Z,100909.11
2018-10-18T02:13:10.068Z,100908.61
2018-10-18T02:15:37.456Z,100918.56
2018-10-18T02:18:05.233Z,100917.61
2018-10-18T02:20:32.644Z,100920.36
2018-10-18T02:23:00.079Z,100926.95
2018-10-18T02:25:27.524Z,100924.92
2018-10-18T02:27:54.924Z,100926.95
2018-10-18T02:30:22.490Z,100923.50
2018-10-18T02:32:49.808Z,100923.84
2018-10-18T02:35:17.267Z,100922.64
2018-10-18T02:37:44.718Z,100925.28
2018-10-18T02:40:12.128Z,100919.53
2018-10-18T02:42:39.500Z,100923.60
2018-10-18T02:45:07.015Z,100915.33
2018-10-18T02:47:34.762Z,100917.61
2018-10-18T02:50:02.180Z,100917.72
2018-10-18T02:52:29.816Z,100915.90
2018-10-18T02:54:57.260Z,100917.72
2018-10-18T02:57:24.679Z,100913.40
2018-10-18T02:59:52.111Z,100916.14
2018-10-18T03:02:19.499Z,100917.72
2018-10-18T03:04:46.859Z,100916.00
2018-10-18T03:07:14.579Z,100926.17
2018-10-18T03:09:41.995Z,100922.34
2018-10-18T03:12:09.691Z,100918.00
2018-10-18T03:14:37.102Z,100923.78
2018-10-18T03:17:04.952Z,100934.44
2018-10-18T03:19:32.446Z,100930.02
2018-10-18T03:21:59.873Z,100927.95
2018-10-18T03:24:27.247Z,100928.08
2018-10-18T03:26:54.684Z,100929.51
2018-10-18T03:29:22.118Z,100926.02
2018-10-18T03:31:49.547Z,100923.27
2018-10-18T03:34:16.907Z,100928.91
2018-10-18T03:36:44.423Z,100932.76
2018-10-18T03:39:11.855Z,100934.69
2018-10-18T03:41:39.283Z,100937.33
2018-10-18T03:44:06.657Z,100935.65
2018-10-18T03:46:34.356Z,100934.54
2018-10-18T03:49:02.515Z,100937.18
2018-10-18T03:51:29.995Z,100940.89
2018-10-18T03:53:57.480Z,100943.16
2018-10-18T03:56:24.898Z,100946.87
2018-10-18T03:58:52.307Z,100945.80
2018-10-18T04:01:19.717Z,100938.59
2018-10-18T04:03:47.106Z,100944.33
2018-10-18T04:06:15.431Z,100941.33
2018-10-18T04:08:42.833Z,100943.25
2018-10-18T04:11:10.311Z,100944.47
2018-10-18T04:13:37.873Z,100949.37
2018-10-18T04:16:05.300Z,100948.77
2018-10-18T04:18:32.713Z,100952.94
2018-10-18T04:21:00.121Z,100950.53
2018-10-18T04:23:32.898Z,100948.47
2018-10-18T04:26:01.398Z,100944.16
2018-10-18T04:28:29.019Z,100946.07
2018-10-18T04:30:56.570Z,100945.81
2018-10-18T04:33:24.283Z,100945.81
2018-10-18T04:35:52.010Z,100946.31
2018-10-18T04:38:19.548Z,100947.38
2018-10-18T04:40:46.985Z,100946.16
2018-10-18T04:43:14.395Z,100944.14
2018-10-18T04:45:42.441Z,100948.20
2018-10-18T04:48:10.020Z,100957.77
2018-10-18T04:50:37.460Z,100954.77
2018-10-18T04:53:05.063Z,100960.91
2018-10-18T04:55:32.515Z,100957.05
2018-10-18T04:57:59.896Z,100962.78
2018-10-18T05:00:28.225Z,100954.52
2018-10-18T05:02:55.672Z,100959.43
2018-10-18T05:05:34.522Z,100962.78
2018-10-18T05:08:01.963Z,100967.98
2018-10-18T05:10:29.400Z,100973.42
2018-10-18T05:12:56.835Z,100968.50
2018-10-18T05:15:24.312Z,100973.78
2018-10-18T05:17:51.701Z,100972.83
2018-10-18T05:20:19.129Z,100971.14
2018-10-18T05:22:46.607Z,100973.66
2018-10-18T05:25:14.106Z,100972.19
2018-10-18T05:27:41.724Z,100977.00
2018-10-18T05:30:09.292Z,100981.34
2018-10-18T05:32:36.924Z,100982.55
2018-10-18T05:35:04.699Z,100990.98
2018-10-18T05:37:32.165Z,101002.17
2018-10-18T05:39:59.966Z,101004.11
2018-10-18T05:42:27.403Z,101006.20
2018-10-18T05:44:54.863Z,101005.25
2018-10-18T05:47:22.417Z,101011.64
2018-10-18T05:49:49.791Z,101015.52
2018-10-18T05:52:17.235Z,101017.08
2018-10-18T05:54:44.585Z,101009.16
2018-10-18T05:57:12.937Z,101011.55
2018-10-18T05:59:40.373Z,101017.19
2018-10-18T06:02:07.975Z,101019.70
2018-10-18T06:04:35.403Z,101020.41
2018-10-18T06:07:02.928Z,101030.10
2018-10-18T06:09:32.647Z,101033.34
2018-10-18T06:12:00.090Z,101032.14
2018-10-18T06:14:27.730Z,101041.77
2018-10-18T06:16:55.180Z,101041.29
2018-10-18T06:19:22.592Z,101048.38
2018-10-18T06:21:50.244Z,101054.88
2018-10-18T06:24:17.623Z,101052.02
2018-10-18T06:26:45.205Z,101047.94
2018-10-18T06:29:12.827Z,101053.94
2018-10-18T06:31:40.601Z,101050.81
2018-10-18T06:34:08.067Z,101065.09
2018-10-18T06:36:35.647Z,101063.77
2018-10-18T06:39:05.055Z,101060.70
2018-10-18T06:41:32.457Z,101073.62
2018-10-18T06:44:00.045Z,101069.73
2018-10-18T06:46:27.539Z,101073.81
2018-10-18T06:48:55.453Z,101064.91
2018-10-18T06:51:22.949Z,101067.99
2018-10-18T06:53:50.373Z,101071.13
2018-10-18T06:56:17.825Z,101069.95
2018-10-18T06:58:45.307Z,101073.14
2018-10-18T07:01:12.770Z,101076.31
2018-10-18T07:03:40.205Z,101078.97
2018-10-18T07:06:07.688Z,101079.23
2018-10-18T07:08:35.101Z,101074.23
2018-10-18T07:11:03.028Z,101087.09
2018-10-18T07:13:30.417Z,101095.03
2018-10-18T07:15:57.905Z,101090.00
2018-10-18T07:18:25.424Z,101094.75
2018-10-18T07:20:52.887Z,101104.11
2018-10-18T07:23:20.321Z,101114.75
2018-10-18T07:25:47.811Z,101097.45
2018-10-18T07:28:15.386Z,101101.63
2018-10-18T07:30:42.905Z,101102.82
2018-10-18T07:33:10.384Z,101106.36
2018-10-18T07:35:37.901Z,101117.22
2018-10-18T07:38:05.435Z,101109.55
2018-10-18T07:40:32.916Z,101113.84
2018-10-18T07:43:00.421Z,101123.82
2018-10-18T07:45:27.897Z,101132.77
2018-10-18T07:47:55.483Z,101132.04
2018-10-18T07:50:23.061Z,101131.72
2018-10-18T07:52:50.506Z,101127.61
2018-10-18T07:55:18.057Z,101130.84
2018-10-18T07:57:45.660Z,101131.75
2018-10-18T08:00:14.364Z,101133.41
2018-10-18T08:02:42.469Z,101140.73
2018-10-18T08:05:10.460Z,101138.95
2018-10-18T08:07:38.205Z,101137.84
2018-10-18T08:10:08.099Z,101140.09
2018-10-18T08:12:35.752Z,101134.34
2018-10-18T08:15:03.408Z,101148.09
2018-10-18T08:17:30.962Z,101147.43
2018-10-18T08:19:58.374Z,101148.20
2018-10-18T08:22:26.051Z,101157.08
2018-10-18T08:24:53.515Z,101148.11
2018-10-18T08:27:21.137Z,101156.81
2018-10-18T08:29:48.570Z,101157.02
2018-10-18T08:32:16.070Z,101153.53
2018-10-18T08:34:43.794Z,101148.03
2018-10-18T08:37:11.307Z,101150.10
2018-10-18T08:39:39.581Z,101152.36
2018-10-18T08:42:07.158Z,101159.08
2018-10-18T08:44:34.762Z,101155.19
2018-10-18T08:47:02.107Z,101160.86
2018-10-18T08:49:29.609Z,101157.33
2018-10-18T08:51:57.090Z,101156.90
2018-10-18T08:54:24.546Z,101160.22
2018-10-18T08:56:52.047Z,101167.94
2018-10-18T08:59:19.526Z,101171.57
2018-10-18T09:01:46.952Z,101174.05
2018-10-18T09:04:14.418Z,101179.84
2018-10-18T09:06:41.910Z,101185.19
2018-10-18T09:09:09.651Z,101186.05
2018-10-18T09:11:37.230Z,101182.19
2018-10-18T09:14:05.566Z,101186.89
2018-10-18T09:16:33.002Z,101182.75
2018-10-18T09:19:00.551Z,101183.90
2018-10-18T09:21:27.989Z,101175.55
2018-10-18T09:23:55.512Z,101171.31
2018-10-18T09:26:22.965Z,101167.87
2018-10-18T09:28:50.510Z,101172.13
2018-10-18T09:31:18.205Z,101162.24
2018-10-18T09:33:45.615Z,101163.06
2018-10-18T09:36:13.058Z,101156.42
2018-10-18T09:38:40.558Z,101153.28
2018-10-18T09:41:08.257Z,101152.40
2018-10-18T09:43:35.682Z,101147.91
2018-10-18T09:46:03.259Z,101140.59
2018-10-18T09:48:30.714Z,101149.91
2018-10-18T09:50:58.392Z,101145.94
2018-10-18T09:53:25.838Z,101153.10
2018-10-18T09:55:53.380Z,101155.33
2018-10-18T09:58:20.746Z,101150.66
2018-10-18T10:00:53.991Z,101152.17
2018-10-18T10:03:21.703Z,101149.13
2018-10-18T10:05:49.143Z,101148.87
2018-10-18T10:08:16.605Z,101147.73
2018-10-18T10:10:44.049Z,101135.80
2018-10-18T10:13:11.655Z,101135.98
2018-10-18T10:15:38.943Z,101131.28
2018-10-18T10:18:06.375Z,101134.22
2018-10-18T10:20:33.807Z,101134.50
2018-10-18T10:23:01.369Z,101137.71
2018-10-18T10:25:28.883Z,101134.75
2018-10-18T10:27:56.899Z,101130.05
2018-10-18T10:30:24.811Z,101133.06
2018-10-18T10:32:52.242Z,101129.05
2018-10-18T10:35:19.727Z,101125.40
2018-10-18T10:37:47.213Z,101121.07
2018-10-18T10:40:14.736Z,101119.60
2018-10-18T10:42:42.410Z,101113.44
2018-10-18T10:45:11.260Z,101111.77
2018-10-18T10:47:38.594Z,101113.83
2018-10-18T10:50:06.777Z,101112.49
2018-10-18T10:52:34.229Z,101110.15
2018-10-18T10:55:01.724Z,101110.32
2018-10-18T10:57:29.454Z,101107.78
2018-10-18T10:59:57.014Z,101113.16
2018-10-18T11:02:24.374Z,101110.95
2018-10-18T11:04:51.939Z,101105.75
2018-10-18T11:07:19.838Z,101101.95
2018-10-18T11:09:47.411Z,101102.80
2018-10-18T11:12:14.835Z,101105.30
2018-10-18T11:14:42.292Z,101105.79
2018-10-18T11:17:09.918Z,101100.43
2018-10-18T11:19:37.284Z,101098.58
2018-10-18T11:22:05.776Z,101106.95
2018-10-18T11:24:33.234Z,101098.09
2018-10-18T11:27:00.706Z,101106.12
2018-10-18T11:29:28.618Z,101098.76
2018-10-18T11:31:56.528Z,101096.43
2018-10-18T11:34:24.056Z,101096.91
2018-10-18T11:36:51.576Z,101093.20
2018-10-18T11:39:19.167Z,101101.06
2018-10-18T11:41:46.614Z,101105.42
2018-10-18T11:44:14.184Z,101104.59
2018-10-18T11:46:41.571Z,101099.41
2018-10-18T11:49:09.135Z,101107.09
2018-10-18T11:51:36.743Z,101096.39
2018-10-18T11:54:04.689Z,101092.69
2018-10-18T11:56:32.359Z,101093.35
2018-10-18T11:58:59.986Z,101093.36
2018-10-18T12:01:27.948Z,101096.69
2018-10-18T12:03:55.414Z,101088.02
2018-10-18T12:06:22.985Z,101089.84
2018-10-18T12:08:50.506Z,101095.66
2018-10-18T12:11:18.095Z,101080.56
2018-10-18T12:13:45.519Z,101083.61
2018-10-18T12:16:12.994Z,101081.22
2018-10-18T12:18:40.541Z,101093.57
2018-10-18T12:21:08.064Z,101089.42
2018-10-18T12:23:35.565Z,101082.40
2018-10-18T12:26:03.062Z,101084.13
2018-10-18T12:28:30.488Z,101085.44
2018-10-18T12:30:57.943Z,101078.73
2018-10-18T12:33:25.378Z,101084.13
2018-10-18T12:35:52.993Z,101083.61
2018-10-18T12:38:20.536Z,101081.45
2018-10-18T12:40:48.118Z,101078.41
2018-10-18T12:43:15.538Z,101077.89
2018-10-18T12:45:42.986Z,101082.92
2018-10-18T12:48:10.529Z,101076.55
2018-10-18T12:50:38.034Z,101078.54
2018-10-18T12:53:05.486Z,101085.27
2018-10-18T12:55:32.983Z,101079.58
2018-10-18T12:58:00.910Z,101082.59
2018-10-18T13:00:28.378Z,101087.46
2018-10-18T13:02:55.886Z,101090.16
2018-10-18T13:05:23.396Z,101093.88
2018-10-18T13:07:50.790Z,101103.09
2018-10-18T13:10:18.286Z,101086.38
2018-10-18T13:12:45.793Z,101091.91
2018-10-18T13:15:13.199Z,101095.08
2018-10-18T13:17:40.713Z,101091.56
2018-10-18T13:20:09.444Z,101100.08
2018-10-18T13:22:37.051Z,101085.86
2018-10-18T13:25:06.023Z,101089.51
2018-10-18T13:27:33.539Z,101084.66
2018-10-18T13:30:01.069Z,101098.39
2018-10-18T13:32:28.473Z,101089.02
2018-10-18T13:34:56.299Z,101088.66
2018-10-18T13:37:23.769Z,101091.67
2018-10-18T13:39:51.191Z,101088.30
2018-10-18T13:42:18.750Z,101091.34
2018-10-18T13:44:46.121Z,101091.02
2018-10-18T13:47:13.662Z,101089.83
2018-10-18T13:49:41.133Z,101094.52
2018-10-18T13:52:08.581Z,101104.20
2018-10-18T13:54:36.003Z,101098.04
2018-10-18T13:57:03.815Z,101094.84
2018-10-18T13:59:42.914Z,101099.70
2018-10-18T14:02:10.368Z,101090.00
2018-10-18T14:04:37.823Z,101088.33
2018-10-18T14:07:05.377Z,101076.45
2018-10-18T14:09:32.821Z,101089.33
2018-10-18T14:12:00.370Z,101083.81
2018-10-18T14:14:27.802Z,101078.11
2018-10-18T14:16:55.282Z,101078.64
2018-10-18T14:19:23.067Z,101080.45
2018-10-18T14:21:50.675Z,101076.12
2018-10-18T14:24:18.130Z,101073.45
2018-10-18T14:26:45.597Z,101075.10
2018-10-18T14:29:13.165Z,101079.27
2018-10-18T14:31:40.567Z,101076.27
2018-10-18T14:34:08.224Z,101074.08
2018-10-18T14:36:35.701Z,101085.95
2018-10-18T14:39:03.925Z,101082.41
2018-10-18T14:41:31.322Z,101086.38
2018-10-18T14:43:58.876Z,101089.06
2018-10-18T14:46:26.507Z,101083.50
2018-10-18T14:48:54.244Z,101074.46
2018-10-18T14:51:21.745Z,101082.45
2018-10-18T14:53:49.187Z,101088.13
2018-10-18T14:56:16.693Z,101084.12
2018-10-18T14:58:44.072Z,101090.10
2018-10-18T15:01:11.573Z,101083.91
2018-10-18T15:03:39.043Z,101086.88
2018-10-18T15:06:06.485Z,101098.19
2018-10-18T15:08:33.936Z,101092.30
2018-10-18T15:11:01.650Z,101086.25
2018-10-18T15:13:29.055Z,101093.25
2018-10-18T15:15:56.619Z,101101.27
2018-10-18T15:18:24.070Z,101102.55
2018-10-18T15:20:51.482Z,101093.36
2018-10-18T15:23:18.958Z,101110.00
2018-10-18T15:25:46.599Z,101099.80
2018-10-18T15:28:13.920Z,101104.08
2018-10-18T15:30:41.461Z,101107.70
2018-10-18T15:33:08.882Z,101102.36
2018-10-18T15:35:36.385Z,101101.94
2018-10-18T15:38:04.423Z,101111.42
2018-10-18T15:40:31.902Z,101106.01
2018-10-18T15:42:59.402Z,101109.30
2018-10-18T15:45:26.913Z,101108.14
2018-10-18T15:47:54.350Z,101110.89
2018-10-18T15:50:21.813Z,101103.91
2018-10-18T15:52:49.322Z,101101.23
2018-10-18T15:55:16.795Z,101109.82
2018-10-18T15:57:44.237Z,101106.73
2018-10-18T16:00:11.961Z,101111.93
2018-10-18T16:02:39.871Z,101107.73
2018-10-18T16:05:07.499Z,101116.97
2018-10-18T16:07:34.969Z,101116.13
2018-10-18T16:10:02.539Z,101125.28
2018-10-18T16:12:30.118Z,101126.62
2018-10-18T16:14:57.677Z,101129.88
2018-10-18T16:17:25.233Z,101132.58
2018-10-18T16:19:52.730Z,101137.57
2018-10-18T16:22:20.655Z,101137.37
2018-10-18T16:24:48.189Z,101138.59
2018-10-18T16:27:15.876Z,101144.40
2018-10-18T16:29:43.373Z,101150.34
2018-10-18T16:32:10.951Z,101148.73
2018-10-18T16:34:38.330Z,101157.73
2018-10-18T16:37:06.170Z,101154.27
2018-10-18T16:39:33.830Z,101157.06
2018-10-18T16:42:01.346Z,101152.61
2018-10-18T16:44:28.876Z,101163.48
2018-10-18T16:46:56.312Z,101161.16
2018-10-18T16:49:23.721Z,101163.91
2018-10-18T16:51:51.213Z,101168.38
2018-10-18T16:54:18.710Z,101168.34
2018-10-18T16:56:46.184Z,101166.46
2018-10-18T16:59:13.689Z,101170.18
2018-10-18T17:01:41.190Z,101172.41
2018-10-18T17:04:08.715Z,101173.14
2018-10-18T17:06:36.304Z,101176.41
2018-10-18T17:09:05.630Z,101174.23
2018-10-18T17:11:33.252Z,101176.06
2018-10-18T17:14:00.912Z,101188.79
2018-10-18T17:16:28.458Z,101187.05
2018-10-18T17:18:55.938Z,101184.52
2018-10-18T17:21:23.442Z,101195.25
2018-10-18T17:23:50.880Z,101193.73
2018-10-18T17:26:18.409Z,101192.31
2018-10-18T17:28:45.901Z,101195.64
2018-10-18T17:31:13.404Z,101192.42
2018-10-18T17:33:40.819Z,101204.66
2018-10-18T17:36:08.403Z,101193.23
2018-10-18T17:38:35.935Z,101200.39
2018-10-18T17:41:03.772Z,101204.34
2018-10-18T17:43:31.316Z,101203.66
2018-10-18T17:45:58.944Z,101207.30
2018-10-18T17:48:26.374Z,101201.36
2018-10-18T17:50:54.006Z,101210.81
2018-10-18T17:53:21.558Z,101205.52
2018-10-18T17:55:49.179Z,101209.48
2018-10-18T17:58:16.762Z,101214.72
2018-10-18T18:00:44.842Z,101209.08
2018-10-18T18:03:13.144Z,101218.20
2018-10-18T18:05:41.255Z,101219.10
2018-10-18T18:08:09.497Z,101223.84
2018-10-18T18:10:38.152Z,101221.20
2018-10-18T18:13:06.588Z,101218.88
2018-10-18T18:15:34.861Z,101226.11
2018-10-18T18:18:03.328Z,101221.95
2018-10-18T18:20:31.565Z,101227.02
2018-10-18T18:22:59.932Z,101227.57
2018-10-18T18:25:27.426Z,101227.02
2018-10-18T18:27:54.929Z,101227.30
2018-10-18T18:30:22.378Z,101227.11
2018-10-18T18:32:49.821Z,101233.39
2018-10-18T18:35:17.427Z,101237.54
2018-10-18T18:37:44.954Z,101240.23
2018-10-18T18:40:12.458Z,101241.72
2018-10-18T18:42:40.532Z,101239.41
2018-10-18T18:45:13.785Z,101244.72
2018-10-18T18:47:41.359Z,101249.70
2018-10-18T18:50:09.229Z,101251.42
2018-10-18T18:52:36.707Z,101254.31
2018-10-18T18:55:05.068Z,101254.95
2018-10-18T18:57:32.471Z,101244.73
2018-10-18T18:59:59.957Z,101255.58
2018-10-18T19:02:27.446Z,101258.84
2018-10-18T19:04:54.936Z,101259.70
2018-10-18T19:07:22.467Z,101260.58
2018-10-18T19:09:49.975Z,101259.56
2018-10-18T19:12:17.550Z,101259.36
2018-10-18T19:14:44.987Z,101263.09
2018-10-18T19:17:12.523Z,101263.94
2018-10-18T19:19:40.019Z,101262.45
2018-10-18T19:22:07.870Z,101263.80
2018-10-18T19:24:35.384Z,101255.02
2018-10-18T19:27:03.117Z,101269.50
2018-10-18T19:29:30.537Z,101264.93
2018-10-18T19:31:58.235Z,101264.80
2018-10-18T19:34:25.611Z,101265.66
2018-10-18T19:36:53.130Z,101270.10
2018-10-18T19:39:20.942Z,101270.02
2018-10-18T19:41:48.416Z,101271.92
2018-10-18T19:44:15.828Z,101274.81
2018-10-18T19:46:43.258Z,101283.48
2018-10-18T19:49:10.790Z,101276.73
2018-10-18T19:51:38.229Z,101283.12
2018-10-18T19:54:05.696Z,101280.13
2018-10-18T19:56:33.331Z,101282.17
2018-10-18T19:59:00.879Z,101284.58
2018-10-18T20:01:28.452Z,101281.08
2018-10-18T20:03:55.922Z,101285.66
2018-10-18T20:06:25.031Z,101289.41
2018-10-18T20:08:52.511Z,101292.28
2018-10-18T20:11:20.040Z,101294.23
2018-10-18T20:13:47.449Z,101289.87
2018-10-18T20:16:15.022Z,101293.98
2018-10-18T20:18:42.519Z,101299.04
2018-10-18T20:21:10.091Z,101302.77
2018-10-18T20:23:37.643Z,101298.66
2018-10-18T20:26:05.449Z,101305.89
2018-10-18T20:28:32.708Z,101313.72
2018-10-18T20:31:00.306Z,101311.55
2018-10-18T20:33:27.721Z,101315.03
2018-10-18T20:35:55.185Z,101319.02
2018-10-18T20:38:22.639Z,101310.45
2018-10-18T20:40:50.060Z,101319.22
2018-10-18T20:43:17.487Z,101321.87
2018-10-18T20:45:45.019Z,101316.57
2018-10-18T20:48:12.610Z,101323.69
2018-10-18T20:50:39.933Z,101321.86
2018-10-18T20:53:07.450Z,101324.52
2018-10-18T20:55:34.879Z,101325.08
2018-10-18T20:58:02.390Z,101325.93
2018-10-18T21:00:29.888Z,101325.54
2018-10-18T21:02:57.449Z,101326.03
2018-10-18T21:05:24.866Z,101331.43
2018-10-18T21:07:52.357Z,101325.06
2018-10-18T21:10:19.805Z,101330.89
2018-10-18T21:12:47.457Z,101327.63
2018-10-18T21:15:17.054Z,101327.47
2018-10-18T21:17:44.953Z,101319.16
2018-10-18T21:20:12.496Z,101323.38
2018-10-18T21:22:39.990Z,101324.78
2018-10-18T21:25:07.720Z,101317.42
2018-10-18T21:27:35.233Z,101317.41
2018-10-18T21:30:02.685Z,101318.22
2018-10-18T21:32:30.137Z,101311.17
2018-10-18T21:34:57.531Z,101315.75
2018-10-18T21:37:25.021Z,101304.71
2018-10-18T21:39:52.569Z,101310.09
2018-10-18T21:42:20.239Z,101310.55
2018-10-18T21:44:48.372Z,101308.86
2018-10-18T21:47:16.390Z,101312.63
2018-10-18T21:49:43.788Z,101308.30
2018-10-18T21:52:11.268Z,101307.34
2018-10-18T21:54:38.683Z,101309.62
2018-10-18T21:57:06.325Z,101309.38
2018-10-18T21:59:33.716Z,101304.42
2018-10-18T22:02:01.157Z,101300.67
2018-10-18T22:04:28.617Z,101304.80
2018-10-18T22:06:56.113Z,101301.81
2018-10-18T22:09:23.519Z,101303.84
2018-10-18T22:11:50.971Z,101306.73
2018-10-18T22:14:18.431Z,101304.91
2018-10-18T22:16:45.955Z,101301.55
2018-10-18T22:19:13.361Z,101296.15
2018-10-18T22:21:40.883Z,101303.83
2018-10-18T22:24:09.758Z,101298.75
2018-10-18T22:26:37.226Z,101292.99
2018-10-18T22:29:05.444Z,101292.48
2018-10-18T22:31:32.758Z,101298.97
2018-10-18T22:34:00.182Z,101295.34
2018-10-18T22:36:27.798Z,101292.91
2018-10-18T22:38:55.416Z,101294.59
2018-10-18T22:41:23.068Z,101291.48
2018-10-18T22:43:50.654Z,101290.27
2018-10-18T22:46:18.199Z,101287.25
2018-10-18T22:48:45.600Z,101292.40
2018-10-18T22:51:13.125Z,101288.59
2018-10-18T22:53:40.486Z,101289.03
2018-10-18T22:56:07.894Z,101285.41
2018-10-18T22:58:35.326Z,101284.42
2018-10-18T23:01:02.769Z,101289.09
2018-10-18T23:03:30.174Z,101291.78
2018-10-18T23:05:57.684Z,101287.53
2018-10-18T23:08:25.084Z,101287.27
2018-10-18T23:10:52.490Z,101291.84
2018-10-18T23:13:20.026Z,101286.89
2018-10-18T23:15:47.551Z,101291.30
2018-10-18T23:18:15.009Z,101284.58
2018-10-18T23:20:42.425Z,101284.33
2018-10-18T23:23:10.473Z,101285.26
2018-10-18T23:25:38.256Z,101283.41
2018-10-18T23:28:06.081Z,101291.34
2018-10-18T23:30:33.513Z,101279.48
2018-10-18T23:33:01.120Z,101279.73
2018-10-18T23:35:28.698Z,101276.89
2018-10-18T23:37:56.105Z,101279.28
2018-10-18T23:40:23.557Z,101272.16
2018-10-18T23:42:51.049Z,101274.80
2018-10-18T23:45:20.382Z,101276.71
2018-10-18T23:47:48.735Z,101272.56
2018-10-18T23:50:16.293Z,101283.12
2018-10-18T23:52:43.730Z,101281.28
2018-10-18T23:55:11.276Z,101283.19
2018-10-18T23:57:39.334Z,101280.66
